createdAt,value
2022-10-23T00:01:55.360Z,9.05
2022-10-23T00:04:27.389Z,9.03
2022-10-23T00:06:56.092Z,9.02
2022-10-23T00:09:26.961Z,8.99
2022-10-23T00:11:55.836Z,8.93
2022-10-23T00:14:25.945Z,8.98
2022-10-23T00:16:54.969Z,8.96
2022-10-23T00:19:23.682Z,8.86
2022-10-23T00:21:52.247Z,8.88
2022-10-23T00:24:21.205Z,8.91
2022-10-23T00:26:54.436Z,8.91
2022-10-23T00:29:23.126Z,8.93
2022-10-23T00:31:51.464Z,8.95
2022-10-23T00:34:20.521Z,8.83
2022-10-23T00:36:48.952Z,8.86
2022-10-23T00:39:17.236Z,8.80
2022-10-23T00:41:45.811Z,8.82
2022-10-23T00:44:47.287Z,8.93
2022-10-23T00:47:18.514Z,8.82
2022-10-23T00:49:48.425Z,8.79
2022-10-23T00:52:17.874Z,8.72
2022-10-23T00:54:46.537Z,8.69
2022-10-23T00:57:17.541Z,8.74
2022-10-23T00:59:46.081Z,8.69
2022-10-23T01:02:14.999Z,8.60
2022-10-23T01:04:45.367Z,8.59
2022-10-23T01:07:19.799Z,8.58
2022-10-23T01:09:56.532Z,8.59
2022-10-23T01:12:30.792Z,8.61
2022-10-23T01:15:07.959Z,8.58
2022-10-23T01:17:44.564Z,8.48
2022-10-23T01:20:27.175Z,8.54
2022-10-23T01:23:20.005Z,8.54
2022-10-23T01:26:00.265Z,8.51
2022-10-23T01:28:33.973Z,8.49
2022-10-23T01:31:08.284Z,8.47
2022-10-23T01:33:42.615Z,8.56
2022-10-23T01:36:14.967Z,8.53
2022-10-23T01:38:48.885Z,8.49
2022-10-23T01:41:22.908Z,8.53
2022-10-23T01:43:56.407Z,8.59
2022-10-23T01:46:27.591Z,8.57
2022-10-23T01:48:59.204Z,8.56
2022-10-23T01:51:29.938Z,8.56
2022-10-23T01:54:02.305Z,8.47
2022-10-23T01:56:35.280Z,8.53
2022-10-23T01:59:10.401Z,8.52
2022-10-23T02:01:43.646Z,8.48
2022-10-23T02:04:16.204Z,8.49
2022-10-23T02:06:44.850Z,8.43
2022-10-23T02:09:13.498Z,8.44
2022-10-23T02:11:51.128Z,8.44
2022-10-23T02:14:30.415Z,8.42
2022-10-23T02:17:06.571Z,8.41
2022-10-23T02:19:44.376Z,8.39
2022-10-23T02:22:18.091Z,8.38
2022-10-23T02:24:51.059Z,8.31
2022-10-23T02:27:25.909Z,8.31
2022-10-23T02:30:01.788Z,8.36
2022-10-23T02:32:31.919Z,8.35
2022-10-23T02:35:01.101Z,8.35
2022-10-23T02:37:29.368Z,8.34
2022-10-23T02:39:58.268Z,8.29
2022-10-23T02:42:32.204Z,8.28
2022-10-23T02:45:08.430Z,8.27
2022-10-23T02:48:01.686Z,8.25
2022-10-23T02:50:39.270Z,8.19
2022-10-23T02:53:15.910Z,8.17
2022-10-23T02:55:56.919Z,8.05
2022-10-23T02:58:29.933Z,8.12
2022-10-23T03:01:07.993Z,8.12
2022-10-23T03:03:42.934Z,8.07
2022-10-23T03:06:12.167Z,8.04
2022-10-23T03:08:45.505Z,8.09
2022-10-23T03:11:14.951Z,8.00
2022-10-23T03:13:43.968Z,8.02
2022-10-23T03:16:14.776Z,8.05
2022-10-23T03:18:43.447Z,8.15
2022-10-23T03:21:12.272Z,8.19
2022-10-23T03:23:41.476Z,8.07
2022-10-23T03:26:10.167Z,8.06
2022-10-23T03:28:39.777Z,8.02
2022-10-23T03:31:08.873Z,7.94
2022-10-23T03:33:39.058Z,7.81
2022-10-23T03:36:07.825Z,7.85
2022-10-23T03:38:36.571Z,7.76
2022-10-23T03:41:05.990Z,7.61
2022-10-23T03:43:34.575Z,7.62
2022-10-23T03:46:09.476Z,7.60
2022-10-23T03:48:40.113Z,7.54
2022-10-23T03:51:08.824Z,7.52
2022-10-23T03:53:37.966Z,7.39
2022-10-23T03:56:06.962Z,7.45
2022-10-23T03:58:35.375Z,7.45
2022-10-23T04:01:03.878Z,7.48
2022-10-23T04:03:32.460Z,7.42
2022-10-23T04:06:02.139Z,7.42
2022-10-23T04:08:30.841Z,7.45
2022-10-23T04:10:59.141Z,7.49
2022-10-23T04:13:28.486Z,7.52
2022-10-23T04:15:56.952Z,7.57
2022-10-23T04:18:25.445Z,7.58
2022-10-23T04:20:54.224Z,7.43
2022-10-23T04:23:24.051Z,7.58
2022-10-23T04:25:52.545Z,7.47
2022-10-23T04:28:20.925Z,7.49
2022-10-23T04:30:49.593Z,7.47
2022-10-23T04:33:18.642Z,7.47
2022-10-23T04:35:47.238Z,7.47
2022-10-23T04:38:15.738Z,7.47
2022-10-23T04:40:45.528Z,7.45
2022-10-23T04:43:14.071Z,7.48
2022-10-23T04:45:42.889Z,7.47
2022-10-23T04:48:11.439Z,7.51
2022-10-23T04:50:40.256Z,7.53
2022-10-23T04:53:10.424Z,7.50
2022-10-23T04:55:39.438Z,7.51
2022-10-23T04:58:10.019Z,7.48
2022-10-23T05:00:38.351Z,7.37
2022-10-23T05:03:06.801Z,7.42
2022-10-23T05:05:35.871Z,7.41
2022-10-23T05:08:04.762Z,7.45
2022-10-23T05:10:33.929Z,7.38
2022-10-23T05:13:02.599Z,7.39
2022-10-23T05:15:33.242Z,7.38
2022-10-23T05:18:06.673Z,7.39
2022-10-23T05:20:37.473Z,7.34
2022-10-23T05:23:10.969Z,7.24
2022-10-23T05:25:39.607Z,7.36
2022-10-23T05:28:08.908Z,7.29
2022-10-23T05:30:39.441Z,7.32
2022-10-23T05:33:08.375Z,7.31
2022-10-23T05:35:39.057Z,7.29
2022-10-23T05:38:09.029Z,7.22
2022-10-23T05:43:06.551Z,7.18
2022-10-23T05:45:35.046Z,7.19
2022-10-23T05:48:11.241Z,7.20
2022-10-23T05:50:51.112Z,7.19
2022-10-23T05:53:19.845Z,7.21
2022-10-23T05:55:48.625Z,7.26
2022-10-23T05:58:18.690Z,7.26
2022-10-23T06:00:47.271Z,7.26
2022-10-23T06:03:18.003Z,7.36
2022-10-23T06:05:51.382Z,7.44
2022-10-23T06:08:19.891Z,7.42
2022-10-23T06:10:48.981Z,7.44
2022-10-23T06:13:18.360Z,7.52
2022-10-23T06:15:47.458Z,7.60
2022-10-23T06:18:17.684Z,7.63
2022-10-23T06:20:46.310Z,7.69
2022-10-23T06:23:14.897Z,7.73
2022-10-23T06:25:43.586Z,7.69
2022-10-23T06:28:13.346Z,7.73
2022-10-23T06:30:43.829Z,7.84
2022-10-23T06:33:12.625Z,7.93
2022-10-23T06:35:42.968Z,7.96
2022-10-23T06:38:11.593Z,7.98
2022-10-23T06:40:40.441Z,8.11
2022-10-23T06:43:09.408Z,8.17
2022-10-23T06:45:37.831Z,8.34
2022-10-23T06:48:06.778Z,8.49
2022-10-23T06:50:35.880Z,8.58
2022-10-23T06:53:06.034Z,8.72
2022-10-23T06:55:35.760Z,8.85
2022-10-23T06:58:04.848Z,9.03
2022-10-23T07:00:33.994Z,9.12
2022-10-23T07:03:02.530Z,9.21
2022-10-23T07:05:31.016Z,9.37
2022-10-23T07:07:59.777Z,9.45
2022-10-23T07:10:31.025Z,9.44
2022-10-23T07:13:01.482Z,9.60
2022-10-23T07:15:30.500Z,9.65
2022-10-23T07:17:59.453Z,9.83
2022-10-23T07:20:28.996Z,9.90
2022-10-23T07:22:58.614Z,10.02
2022-10-23T07:25:30.375Z,10.08
2022-10-23T07:27:58.855Z,10.19
2022-10-23T07:30:27.239Z,10.25
2022-10-23T07:32:55.743Z,10.20
2022-10-23T07:35:24.740Z,10.35
2022-10-23T07:37:54.250Z,10.43
2022-10-23T07:40:23.123Z,10.63
2022-10-23T07:42:54.237Z,10.64
2022-10-23T07:45:23.060Z,10.78
2022-10-23T07:47:55.444Z,10.82
2022-10-23T07:50:24.382Z,10.70
2022-10-23T07:52:53.132Z,10.86
2022-10-23T07:55:23.148Z,10.97
2022-10-23T07:57:53.678Z,11.10
2022-10-23T08:02:56.629Z,11.38
2022-10-23T08:05:25.552Z,11.39
2022-10-23T08:07:53.985Z,11.51
2022-10-23T08:10:23.172Z,11.67
2022-10-23T08:12:53.702Z,11.85
2022-10-23T08:15:22.740Z,12.05
2022-10-23T08:17:51.875Z,12.29
2022-10-23T08:20:20.900Z,12.40
2022-10-23T08:22:49.305Z,12.48
2022-10-23T08:25:21.878Z,12.62
2022-10-23T08:27:56.530Z,12.64
2022-10-23T08:30:25.114Z,12.71
2022-10-23T08:32:53.270Z,12.76
2022-10-23T08:35:21.758Z,12.75
2022-10-23T08:37:50.559Z,12.68
2022-10-23T08:40:23.268Z,12.75
2022-10-23T08:43:03.273Z,12.80
2022-10-23T08:45:35.860Z,12.86
2022-10-23T08:48:12.120Z,12.91
2022-10-23T08:50:44.304Z,13.08
2022-10-23T08:53:21.475Z,13.12
2022-10-23T08:55:59.115Z,13.31
2022-10-23T08:58:38.178Z,13.37
2022-10-23T09:01:28.545Z,13.50
2022-10-23T09:03:58.201Z,13.54
2022-10-23T09:06:35.611Z,13.88
2022-10-23T09:09:20.958Z,13.81
2022-10-23T09:11:59.108Z,13.80
2022-10-23T09:14:48.982Z,13.98
2022-10-23T09:17:25.255Z,14.10
2022-10-23T09:20:01.317Z,14.28
2022-10-23T09:22:30.891Z,14.49
2022-10-23T09:24:59.249Z,14.42
2022-10-23T09:27:28.088Z,14.47
2022-10-23T09:29:59.497Z,14.54
2022-10-23T09:32:36.019Z,14.40
2022-10-23T09:35:06.659Z,14.40
2022-10-23T09:37:37.795Z,14.39
2022-10-23T09:40:19.754Z,14.44
2022-10-23T09:42:58.042Z,14.54
2022-10-23T09:45:31.856Z,14.80
2022-10-23T09:48:16.066Z,14.82
2022-10-23T09:50:49.181Z,14.75
2022-10-23T09:53:20.936Z,14.76
2022-10-23T09:55:58.342Z,14.85
2022-10-23T09:58:33.886Z,14.89
2022-10-23T10:01:04.640Z,14.74
2022-10-23T10:03:33.922Z,14.79
2022-10-23T10:06:04.967Z,14.81
2022-10-23T10:08:42.457Z,14.92
2022-10-23T10:11:17.669Z,15.27
2022-10-23T10:14:06.358Z,15.23
2022-10-23T10:16:45.747Z,15.47
2022-10-23T10:19:26.026Z,15.34
2022-10-23T10:22:05.130Z,15.22
2022-10-23T10:24:40.457Z,15.10
2022-10-23T10:27:18.780Z,15.06
2022-10-23T10:29:59.534Z,15.11
2022-10-23T10:32:41.575Z,15.29
2022-10-23T10:35:27.103Z,15.39
2022-10-23T10:38:21.083Z,15.41
2022-10-23T10:41:01.183Z,15.53
2022-10-23T10:43:42.925Z,15.60
2022-10-23T10:46:19.130Z,15.48
2022-10-23T10:48:57.800Z,15.60
2022-10-23T10:51:31.961Z,15.68
2022-10-23T10:54:14.202Z,15.90
2022-10-23T10:56:46.179Z,15.93
2022-10-23T10:59:23.112Z,15.94
2022-10-23T11:01:58.869Z,15.77
2022-10-23T11:04:35.613Z,15.99
2022-10-23T11:07:11.870Z,16.03
2022-10-23T11:09:41.512Z,15.98
2022-10-23T11:12:17.823Z,16.00
2022-10-23T11:14:47.424Z,16.03
2022-10-23T11:17:20.725Z,16.29
2022-10-23T11:19:58.151Z,16.38
2022-10-23T11:22:32.945Z,16.44
2022-10-23T11:25:29.557Z,16.50
2022-10-23T11:28:14.988Z,16.45
2022-10-23T11:31:00.731Z,16.42
2022-10-23T11:34:16.212Z,16.50
2022-10-23T11:36:48.702Z,16.46
2022-10-23T11:39:21.910Z,16.60
2022-10-23T11:41:54.204Z,16.40
2022-10-23T11:44:41.235Z,16.59
2022-10-23T11:47:29.676Z,16.55
2022-10-23T11:50:30.829Z,16.49
2022-10-23T11:53:15.168Z,16.60
2022-10-23T11:55:59.710Z,16.85
2022-10-23T11:58:32.165Z,16.78
2022-10-23T12:01:05.909Z,16.87
2022-10-23T12:03:43.557Z,16.96
2022-10-23T12:06:23.310Z,16.87
2022-10-23T12:08:56.626Z,16.79
2022-10-23T12:11:41.722Z,16.69
2022-10-23T12:14:28.599Z,16.78
2022-10-23T12:16:57.327Z,16.95
2022-10-23T12:19:28.543Z,16.95
2022-10-23T12:22:01.931Z,17.08
2022-10-23T12:24:56.008Z,17.23
2022-10-23T12:27:35.762Z,17.49
2022-10-23T12:30:20.522Z,17.37
2022-10-23T12:33:01.064Z,17.44
2022-10-23T12:35:55.559Z,17.40
2022-10-23T12:38:26.845Z,17.39
2022-10-23T12:41:02.101Z,17.26
2022-10-23T12:43:33.399Z,17.17
2022-10-23T12:46:06.570Z,17.09
2022-10-23T12:48:36.265Z,16.87
2022-10-23T12:51:05.523Z,17.04
2022-10-23T12:53:34.067Z,17.23
2022-10-23T12:56:06.286Z,17.29
2022-10-23T12:58:37.468Z,17.31
2022-10-23T13:01:08.612Z,17.13
2022-10-23T13:03:38.662Z,17.22
2022-10-23T13:06:07.779Z,17.13
2022-10-23T13:08:43.671Z,17.02
2022-10-23T13:11:19.004Z,17.02
2022-10-23T13:13:50.285Z,17.00
2022-10-23T13:16:20.436Z,16.94
2022-10-23T13:18:49.842Z,16.91
2022-10-23T13:21:22.437Z,16.90
2022-10-23T13:23:52.770Z,16.77
2022-10-23T13:26:34.945Z,16.69
2022-10-23T13:29:09.562Z,16.75
2022-10-23T13:31:40.514Z,16.57
2022-10-23T13:34:21.857Z,16.66
2022-10-23T13:37:03.317Z,16.59
2022-10-23T13:39:34.599Z,16.49
2022-10-23T13:42:14.209Z,16.42
2022-10-23T13:44:49.523Z,16.31
2022-10-23T13:47:19.012Z,16.24
2022-10-23T13:49:50.584Z,16.33
2022-10-23T13:52:24.886Z,16.29
2022-10-23T13:54:56.189Z,16.36
2022-10-23T13:57:28.634Z,16.54
2022-10-23T13:59:57.729Z,16.42
2022-10-23T14:02:29.758Z,16.10
2022-10-23T14:04:58.546Z,16.14
2022-10-23T14:07:28.031Z,16.09
2022-10-23T14:09:57.520Z,16.20
2022-10-23T14:12:28.923Z,15.96
2022-10-23T14:14:57.515Z,16.05
2022-10-23T14:17:26.016Z,16.01
2022-10-23T14:19:55.708Z,15.94
2022-10-23T14:22:25.801Z,15.90
2022-10-23T14:24:54.525Z,15.97
2022-10-23T14:27:23.253Z,15.79
2022-10-23T14:29:54.323Z,15.85
2022-10-23T14:32:23.257Z,15.65
2022-10-23T14:34:53.873Z,15.84
2022-10-23T14:37:23.451Z,15.97
2022-10-23T14:39:52.649Z,15.89
2022-10-23T14:42:21.621Z,16.00
2022-10-23T14:44:53.876Z,15.98
2022-10-23T14:47:24.241Z,15.75
2022-10-23T14:49:56.436Z,15.93
2022-10-23T14:52:26.229Z,15.88
2022-10-23T14:54:55.493Z,15.96
2022-10-23T14:57:24.715Z,15.93
2022-10-23T14:59:56.703Z,15.99
2022-10-23T15:02:26.843Z,15.76
2022-10-23T15:04:55.907Z,15.68
2022-10-23T15:07:24.818Z,15.63
2022-10-23T15:09:54.628Z,15.50
2022-10-23T15:12:24.140Z,15.58
2022-10-23T15:14:54.399Z,15.69
2022-10-23T15:17:22.919Z,15.63
2022-10-23T15:19:51.409Z,15.58
2022-10-23T15:22:20.706Z,15.59
2022-10-23T15:24:49.500Z,15.41
2022-10-23T15:27:18.383Z,15.26
2022-10-23T15:29:48.958Z,15.20
2022-10-23T15:32:18.984Z,15.05
2022-10-23T15:34:50.224Z,15.10
2022-10-23T15:37:20.526Z,15.01
2022-10-23T15:39:48.871Z,14.91
2022-10-23T15:42:19.200Z,14.75
2022-10-23T15:44:47.990Z,14.69
2022-10-23T15:47:16.558Z,14.71
2022-10-23T15:49:46.851Z,14.78
2022-10-23T15:52:15.672Z,14.72
2022-10-23T15:54:45.401Z,14.65
2022-10-23T15:57:14.606Z,14.54
2022-10-23T15:59:43.600Z,14.59
2022-10-23T16:02:13.144Z,14.55
2022-10-23T16:04:42.412Z,14.45
2022-10-23T16:07:14.847Z,14.38
2022-10-23T16:09:43.951Z,14.60
2022-10-23T16:12:12.591Z,14.56
2022-10-23T16:14:41.738Z,14.47
2022-10-23T16:17:10.571Z,14.56
2022-10-23T16:19:39.934Z,14.47
2022-10-23T16:22:08.631Z,14.43
2022-10-23T16:24:40.013Z,14.35
2022-10-23T16:27:09.272Z,14.39
2022-10-23T16:29:40.277Z,14.41
2022-10-23T16:32:09.826Z,14.34
2022-10-23T16:34:38.270Z,14.34
2022-10-23T16:37:07.370Z,14.40
2022-10-23T16:39:36.464Z,14.30
2022-10-23T16:42:12.936Z,14.38
2022-10-23T16:44:41.930Z,14.28
2022-10-23T16:47:10.943Z,14.30
2022-10-23T16:49:39.839Z,14.21
2022-10-23T16:52:09.596Z,14.15
2022-10-23T16:54:38.213Z,14.10
2022-10-23T16:57:07.723Z,14.08
2022-10-23T16:59:37.232Z,14.09
2022-10-23T17:02:06.127Z,13.98
2022-10-23T17:04:35.138Z,14.06
2022-10-23T17:07:04.898Z,14.04
2022-10-23T17:09:35.908Z,13.87
2022-10-23T17:12:05.214Z,13.93
2022-10-23T17:14:38.797Z,13.82
2022-10-23T17:17:11.310Z,13.76
2022-10-23T17:19:46.026Z,13.75
2022-10-23T17:22:16.631Z,13.79
2022-10-23T17:24:48.969Z,13.72
2022-10-23T17:27:21.428Z,13.85
2022-10-23T17:29:53.044Z,13.81
2022-10-23T17:34:55.984Z,13.70
2022-10-23T17:37:25.379Z,13.61
2022-10-23T17:39:54.022Z,13.55
2022-10-23T17:42:23.767Z,13.46
2022-10-23T17:44:53.945Z,13.46
2022-10-23T17:47:23.493Z,13.65
2022-10-23T17:49:53.561Z,13.60
2022-10-23T17:52:23.693Z,13.54
2022-10-23T17:54:54.077Z,13.42
2022-10-23T17:59:54.337Z,13.40
2022-10-23T18:02:24.016Z,13.35
2022-10-23T18:04:54.272Z,13.59
2022-10-23T18:07:24.919Z,13.61
2022-10-23T18:09:54.195Z,13.66
2022-10-23T18:12:22.863Z,13.45
2022-10-23T18:14:51.404Z,13.39
2022-10-23T18:17:21.941Z,13.44
2022-10-23T18:19:52.564Z,13.27
2022-10-23T18:22:21.664Z,13.31
2022-10-23T18:24:51.253Z,13.27
2022-10-23T18:27:20.405Z,13.38
2022-10-23T18:29:49.777Z,13.36
2022-10-23T18:32:18.907Z,13.38
2022-10-23T18:34:49.822Z,13.45
2022-10-23T18:37:19.575Z,13.40
2022-10-23T18:39:49.026Z,13.42
2022-10-23T18:42:17.731Z,13.48
2022-10-23T18:44:50.230Z,13.70
2022-10-23T18:47:18.990Z,13.69
2022-10-23T18:49:49.838Z,13.73
2022-10-23T18:52:18.740Z,13.83
2022-10-23T18:54:47.935Z,13.78
2022-10-23T18:57:16.713Z,13.67
2022-10-23T18:59:45.706Z,13.65
2022-10-23T19:02:14.434Z,13.60
2022-10-23T19:04:44.351Z,13.59
2022-10-23T19:07:15.159Z,13.53
2022-10-23T19:09:43.991Z,13.46
2022-10-23T19:14:43.170Z,13.25
2022-10-23T19:17:18.498Z,13.25
2022-10-23T19:19:50.757Z,13.11
2022-10-23T19:22:21.682Z,13.15
2022-10-23T19:24:55.254Z,13.10
2022-10-23T19:27:25.289Z,13.08
2022-10-23T19:29:55.795Z,13.06
2022-10-23T19:32:24.763Z,13.21
2022-10-23T19:34:54.123Z,13.23
2022-10-23T19:37:24.409Z,13.21
2022-10-23T19:39:52.936Z,13.21
2022-10-23T19:42:22.026Z,13.29
2022-10-23T19:44:52.530Z,13.25
2022-10-23T19:47:23.917Z,13.26
2022-10-23T19:49:53.366Z,13.29
2022-10-23T19:52:24.346Z,13.33
2022-10-23T19:54:55.821Z,13.28
2022-10-23T19:57:26.379Z,13.33
2022-10-23T19:59:58.900Z,13.30
2022-10-23T20:02:33.024Z,13.31
2022-10-23T20:05:05.349Z,13.40
2022-10-23T20:07:40.301Z,13.40
2022-10-23T20:10:12.243Z,13.44
2022-10-23T20:12:56.553Z,13.42
2022-10-23T20:15:31.980Z,13.40
2022-10-23T20:18:28.333Z,13.39
2022-10-23T20:20:58.435Z,13.37
2022-10-23T20:23:28.383Z,13.48
2022-10-23T20:26:04.323Z,13.61
2022-10-23T20:28:34.936Z,13.65
2022-10-23T20:31:09.189Z,13.60
2022-10-23T20:33:38.527Z,13.67
2022-10-23T20:36:09.243Z,13.72
2022-10-23T20:38:39.494Z,13.73
2022-10-23T20:41:08.150Z,13.69
2022-10-23T20:43:37.552Z,13.71
2022-10-23T20:46:07.729Z,13.69
2022-10-23T20:48:37.359Z,13.63
2022-10-23T20:51:06.759Z,13.51
2022-10-23T20:53:37.343Z,13.53
2022-10-23T20:56:08.644Z,13.51
2022-10-23T20:58:38.503Z,13.45
2022-10-23T21:01:09.506Z,13.41
2022-10-23T21:03:42.409Z,13.34
2022-10-23T21:06:12.761Z,13.31
2022-10-23T21:08:41.682Z,13.26
2022-10-23T21:11:15.343Z,13.29
2022-10-23T21:13:45.108Z,13.17
2022-10-23T21:16:16.208Z,13.26
2022-10-23T21:18:46.709Z,13.17
2022-10-23T21:21:17.577Z,12.98
2022-10-23T21:23:46.416Z,13.02
2022-10-23T21:26:17.322Z,13.14
2022-10-23T21:28:55.650Z,13.08
2022-10-23T21:31:29.372Z,13.11
2022-10-23T21:33:57.914Z,13.07
2022-10-23T21:36:26.452Z,13.15
2022-10-23T21:38:56.432Z,13.12
2022-10-23T21:41:28.952Z,13.25
2022-10-23T21:43:59.303Z,13.30
2022-10-23T21:46:29.135Z,13.25
2022-10-23T21:49:02.243Z,13.33
2022-10-23T21:51:34.100Z,13.27
2022-10-23T21:54:02.899Z,13.18
2022-10-23T21:56:35.818Z,13.13
2022-10-23T22:01:36.799Z,13.15
2022-10-23T22:04:05.830Z,13.15
2022-10-23T22:06:36.155Z,13.18
2022-10-23T22:09:06.400Z,13.21
2022-10-23T22:11:37.292Z,13.23
2022-10-23T22:14:05.925Z,13.26
2022-10-23T22:16:34.505Z,13.32
2022-10-23T22:19:03.742Z,13.36
2022-10-23T22:21:32.918Z,13.36
2022-10-23T22:26:38.891Z,13.52
2022-10-23T22:29:08.872Z,13.53
2022-10-23T22:31:38.633Z,13.53
2022-10-23T22:34:24.992Z,13.57
2022-10-23T22:36:55.866Z,13.53
2022-10-23T22:39:24.952Z,13.56
2022-10-23T22:41:55.079Z,13.51
2022-10-23T22:44:23.610Z,13.79
2022-10-23T22:46:52.605Z,13.89
2022-10-23T22:49:21.406Z,13.94
2022-10-23T22:51:50.294Z,13.82
2022-10-23T22:54:18.851Z,13.81
2022-10-23T22:56:47.209Z,13.80
2022-10-23T22:59:17.098Z,13.75
2022-10-23T23:01:47.926Z,13.78
2022-10-23T23:07:07.779Z,13.79
2022-10-23T23:09:38.261Z,13.81
2022-10-23T23:12:07.635Z,13.74
2022-10-23T23:14:38.083Z,13.75
2022-10-23T23:17:06.931Z,13.71
2022-10-23T23:19:36.084Z,13.76
2022-10-23T23:22:05.487Z,13.75
2022-10-23T23:24:34.432Z,13.72
2022-10-23T23:27:03.397Z,13.70
2022-10-23T23:29:33.159Z,13.72
2022-10-23T23:32:03.427Z,13.78
2022-10-23T23:34:32.226Z,13.75
2022-10-23T23:37:01.292Z,13.73
2022-10-23T23:39:29.959Z,13.78
2022-10-23T23:41:58.701Z,13.72
2022-10-23T23:44:27.092Z,13.80
2022-10-23T23:46:55.922Z,13.71
2022-10-23T23:49:26.109Z,13.87
2022-10-23T23:51:54.999Z,13.76
2022-10-23T23:54:23.657Z,13.81
2022-10-23T23:56:52.575Z,13.89
2022-10-23T23:59:21.345Z,13.88
